createdAt,value
2019-01-21T00:00:48.438Z,1022.80
2019-01-21T00:01:48.366Z,1022.77
2019-01-21T00:02:48.328Z,1022.77
2019-01-21T00:03:48.289Z,1022.79
2019-01-21T00:04:48.250Z,1022.76
2019-01-21T00:05:48.213Z,1022.75
2019-01-21T00:06:48.172Z,1022.74
2019-01-21T00:07:48.136Z,1022.67
2019-01-21T00:08:48.099Z,1022.71
2019-01-21T00:09:48.057Z,1022.72
2019-01-21T00:10:48.021Z,1022.73
2019-01-21T00:11:47.978Z,1022.74
2019-01-21T00:12:47.940Z,1022.71
2019-01-21T00:13:47.903Z,1022.74
2019-01-21T00:14:47.867Z,1022.70
2019-01-21T00:15:47.873Z,1022.70
2019-01-21T00:16:47.792Z,1022.71
2019-01-21T00:17:47.749Z,1022.67
2019-01-21T00:18:47.707Z,1022.67
2019-01-21T00:19:47.670Z,1022.69
2019-01-21T00:20:47.631Z,1022.71
2019-01-21T00:21:47.593Z,1022.75
2019-01-21T00:22:47.555Z,1022.72
2019-01-21T00:23:47.516Z,1022.74
2019-01-21T00:24:47.476Z,1022.77
2019-01-21T00:25:47.438Z,1022.82
2019-01-21T00:26:47.400Z,1022.83
2019-01-21T00:27:47.360Z,1022.88
2019-01-21T00:28:47.324Z,1022.90
2019-01-21T00:29:47.288Z,1022.84
2019-01-21T00:30:47.244Z,1022.84
2019-01-21T00:31:47.205Z,1022.89
2019-01-21T00:32:47.167Z,1022.89
2019-01-21T00:33:47.129Z,1022.86
2019-01-21T00:34:47.091Z,1022.88
2019-01-21T00:35:47.052Z,1022.89
2019-01-21T00:36:47.014Z,1022.85
2019-01-21T00:37:46.973Z,1022.86
2019-01-21T00:38:46.934Z,1022.81
2019-01-21T00:39:46.895Z,1022.83
2019-01-21T00:40:46.857Z,1022.85
2019-01-21T00:41:46.818Z,1022.84
2019-01-21T00:42:46.779Z,1022.88
2019-01-21T00:43:46.741Z,1022.86
2019-01-21T00:44:46.701Z,1022.89
2019-01-21T00:45:46.663Z,1022.88
2019-01-21T00:46:46.623Z,1022.86
2019-01-21T00:47:46.585Z,1022.89
2019-01-21T00:48:46.547Z,1022.85
2019-01-21T00:49:46.508Z,1022.88
2019-01-21T00:50:46.468Z,1022.86
2019-01-21T00:51:46.430Z,1022.90
2019-01-21T00:52:46.435Z,1022.85
2019-01-21T00:53:46.353Z,1022.88
2019-01-21T00:54:46.357Z,1022.86
2019-01-21T00:55:46.278Z,1022.88
2019-01-21T00:56:46.236Z,1022.89
2019-01-21T00:57:46.196Z,1022.90
2019-01-21T00:58:46.156Z,1022.88
2019-01-21T00:59:46.117Z,1022.92
2019-01-21T01:00:46.079Z,1022.91
2019-01-21T01:01:46.040Z,1022.92
2019-01-21T01:02:46.000Z,1022.96
2019-01-21T01:03:45.962Z,1022.96
2019-01-21T01:04:45.922Z,1022.93
2019-01-21T01:05:45.884Z,1022.90
2019-01-21T01:06:45.843Z,1022.91
2019-01-21T01:07:45.807Z,1022.88
2019-01-21T01:08:45.766Z,1022.90
2019-01-21T01:09:45.727Z,1022.87
2019-01-21T01:10:45.689Z,1022.85
2019-01-21T01:11:45.649Z,1022.86
2019-01-21T01:12:45.610Z,1022.86
2019-01-21T01:13:45.570Z,1022.91
2019-01-21T01:14:45.530Z,1022.86
2019-01-21T01:15:45.494Z,1022.86
2019-01-21T01:16:45.456Z,1022.88
2019-01-21T01:17:45.414Z,1022.87
2019-01-21T01:18:45.376Z,1022.85
2019-01-21T01:19:45.336Z,1022.82
2019-01-21T01:20:45.297Z,1022.89
2019-01-21T01:21:45.258Z,1022.86
2019-01-21T01:22:45.217Z,1022.87
2019-01-21T01:23:45.179Z,1022.86
2019-01-21T01:24:45.139Z,1022.84
2019-01-21T01:25:45.101Z,1022.85
2019-01-21T01:26:45.062Z,1022.85
2019-01-21T01:27:45.022Z,1022.82
2019-01-21T01:28:44.983Z,1022.83
2019-01-21T01:29:44.944Z,1022.82
2019-01-21T01:30:44.905Z,1022.78
2019-01-21T01:31:44.870Z,1022.77
2019-01-21T01:32:44.826Z,1022.81
2019-01-21T01:33:44.788Z,1022.79
2019-01-21T01:34:44.749Z,1022.79
2019-01-21T01:35:44.708Z,1022.79
2019-01-21T01:36:44.671Z,1022.79
2019-01-21T01:37:44.631Z,1022.79
2019-01-21T01:38:44.594Z,1022.76
2019-01-21T01:39:44.551Z,1022.77
2019-01-21T01:40:44.513Z,1022.73
2019-01-21T01:41:44.475Z,1022.72
2019-01-21T01:42:44.435Z,1022.75
2019-01-21T01:43:44.397Z,1022.76
2019-01-21T01:44:44.358Z,1022.75
2019-01-21T01:45:44.318Z,1022.74
2019-01-21T01:46:44.284Z,1022.69
2019-01-21T01:47:44.801Z,1022.71
2019-01-21T01:48:44.201Z,1022.68
2019-01-21T01:49:44.164Z,1022.68
2019-01-21T01:50:44.122Z,1022.67
2019-01-21T01:51:44.083Z,1022.68
2019-01-21T01:52:44.045Z,1022.69
2019-01-21T01:53:44.004Z,1022.71
2019-01-21T01:54:43.964Z,1022.70
2019-01-21T01:55:43.930Z,1022.70
2019-01-21T01:56:43.887Z,1022.72
2019-01-21T01:57:43.852Z,1022.68
2019-01-21T01:58:43.809Z,1022.71
2019-01-21T01:59:43.771Z,1022.73
2019-01-21T02:00:43.731Z,1022.75
2019-01-21T02:01:43.693Z,1022.75
2019-01-21T02:02:43.653Z,1022.74
2019-01-21T02:03:43.613Z,1022.72
2019-01-21T02:04:43.578Z,1022.71
2019-01-21T02:05:43.537Z,1022.73
2019-01-21T02:06:43.497Z,1022.75
2019-01-21T02:07:43.457Z,1022.73
2019-01-21T02:08:43.418Z,1022.77
2019-01-21T02:09:43.380Z,1022.79
2019-01-21T02:10:43.343Z,1022.77
2019-01-21T02:11:43.300Z,1022.77
2019-01-21T02:12:43.262Z,1022.76
2019-01-21T02:13:43.224Z,1022.78
2019-01-21T02:14:43.184Z,1022.77
2019-01-21T02:15:43.146Z,1022.74
2019-01-21T02:16:43.107Z,1022.74
2019-01-21T02:17:43.067Z,1022.73
2019-01-21T02:18:43.029Z,1022.70
2019-01-21T02:19:42.989Z,1022.68
2019-01-21T02:20:42.950Z,1022.66
2019-01-21T02:21:42.912Z,1022.66
2019-01-21T02:22:42.870Z,1022.67
2019-01-21T02:23:42.834Z,1022.63
2019-01-21T02:24:42.793Z,1022.66
2019-01-21T02:25:42.758Z,1022.66
2019-01-21T02:26:42.717Z,1022.65
2019-01-21T02:27:42.674Z,1022.67
2019-01-21T02:28:42.639Z,1022.68
2019-01-21T02:29:42.599Z,1022.70
2019-01-21T02:30:42.559Z,1022.68
2019-01-21T02:31:42.522Z,1022.66
2019-01-21T02:32:42.482Z,1022.65
2019-01-21T02:33:42.442Z,1022.61
2019-01-21T02:34:42.404Z,1022.59
2019-01-21T02:35:42.367Z,1022.60
2019-01-21T02:36:42.326Z,1022.54
2019-01-21T02:37:42.288Z,1022.56
2019-01-21T02:38:42.248Z,1022.54
2019-01-21T02:39:42.211Z,1022.47
2019-01-21T02:40:42.171Z,1022.56
2019-01-21T02:41:42.132Z,1022.50
2019-01-21T02:42:42.091Z,1022.52
2019-01-21T02:43:42.054Z,1022.55
2019-01-21T02:44:42.014Z,1022.54
2019-01-21T02:45:41.975Z,1022.56
2019-01-21T02:46:41.936Z,1022.55
2019-01-21T02:47:41.900Z,1022.53
2019-01-21T02:48:41.877Z,1022.54
2019-01-21T02:49:41.825Z,1022.50
2019-01-21T02:50:41.785Z,1022.52
2019-01-21T02:51:41.741Z,1022.55
2019-01-21T02:52:41.706Z,1022.48
2019-01-21T02:53:41.664Z,1022.43
2019-01-21T02:54:41.625Z,1022.41
2019-01-21T02:55:41.588Z,1022.43
2019-01-21T02:56:41.550Z,1022.39
2019-01-21T02:57:41.509Z,1022.41
2019-01-21T02:58:41.469Z,1022.37
2019-01-21T02:59:41.438Z,1022.39
2019-01-21T03:00:41.392Z,1022.40
2019-01-21T03:01:41.354Z,1022.38
2019-01-21T03:02:41.315Z,1022.37
2019-01-21T03:03:41.275Z,1022.39
2019-01-21T03:04:41.256Z,1022.38
2019-01-21T03:05:41.199Z,1022.40
2019-01-21T03:06:41.159Z,1022.42
2019-01-21T03:07:41.120Z,1022.38
2019-01-21T03:08:41.084Z,1022.40
2019-01-21T03:09:41.041Z,1022.38
2019-01-21T03:10:41.002Z,1022.37
2019-01-21T03:11:40.963Z,1022.37
2019-01-21T03:12:40.926Z,1022.34
2019-01-21T03:13:40.889Z,1022.34
2019-01-21T03:14:40.847Z,1022.31
2019-01-21T03:15:40.807Z,1022.30
2019-01-21T03:16:40.768Z,1022.32
2019-01-21T03:17:40.731Z,1022.32
2019-01-21T03:18:40.690Z,1022.36
2019-01-21T03:19:40.651Z,1022.36
2019-01-21T03:20:40.613Z,1022.37
2019-01-21T03:21:40.574Z,1022.38
2019-01-21T03:22:40.535Z,1022.39
2019-01-21T03:23:40.496Z,1022.40
2019-01-21T03:24:40.457Z,1022.37
2019-01-21T03:25:40.420Z,1022.37
2019-01-21T03:26:40.380Z,1022.35
2019-01-21T03:27:40.340Z,1022.32
2019-01-21T03:28:40.303Z,1022.32
2019-01-21T03:29:40.267Z,1022.33
2019-01-21T03:30:40.225Z,1022.29
2019-01-21T03:31:40.189Z,1022.30
2019-01-21T03:32:40.146Z,1022.34
2019-01-21T03:33:40.109Z,1022.34
2019-01-21T03:34:40.068Z,1022.31
2019-01-21T03:35:40.031Z,1022.28
2019-01-21T03:36:39.995Z,1022.28
2019-01-21T03:37:39.952Z,1022.18
2019-01-21T03:38:39.913Z,1022.19
2019-01-21T03:39:39.873Z,1022.17
2019-01-21T03:40:39.840Z,1022.19
2019-01-21T03:41:39.796Z,1022.15
2019-01-21T03:42:39.759Z,1022.14
2019-01-21T03:43:39.719Z,1022.14
2019-01-21T03:44:39.679Z,1022.12
2019-01-21T03:45:39.640Z,1022.13
2019-01-21T03:46:39.610Z,1022.17
2019-01-21T03:47:39.561Z,1022.14
2019-01-21T03:48:39.523Z,1022.18
2019-01-21T03:49:39.483Z,1022.19
2019-01-21T03:50:39.444Z,1022.18
2019-01-21T03:51:39.406Z,1022.15
2019-01-21T03:52:39.368Z,1022.16
2019-01-21T03:53:39.330Z,1022.15
2019-01-21T03:54:39.287Z,1022.17
2019-01-21T03:55:39.250Z,1022.16
2019-01-21T03:56:39.210Z,1022.16
2019-01-21T03:57:39.170Z,1022.15
2019-01-21T03:58:39.133Z,1022.16
2019-01-21T03:59:39.094Z,1022.12
2019-01-21T04:00:39.055Z,1022.12
2019-01-21T04:01:39.015Z,1022.13
2019-01-21T04:02:38.976Z,1022.16
2019-01-21T04:03:38.941Z,1022.13
2019-01-21T04:04:38.900Z,1022.12
2019-01-21T04:05:38.861Z,1022.13
2019-01-21T04:06:38.820Z,1022.12
2019-01-21T04:07:38.780Z,1022.10
2019-01-21T04:08:38.743Z,1022.12
2019-01-21T04:09:38.703Z,1022.10
2019-01-21T04:10:38.664Z,1022.09
2019-01-21T04:11:38.626Z,1022.06
2019-01-21T04:12:38.586Z,1022.08
2019-01-21T04:13:38.549Z,1022.08
2019-01-21T04:14:38.508Z,1022.04
2019-01-21T04:15:38.470Z,1021.99
2019-01-21T04:16:38.430Z,1022.02
2019-01-21T04:17:38.391Z,1022.01
2019-01-21T04:18:38.352Z,1021.98
2019-01-21T04:19:38.313Z,1021.96
2019-01-21T04:20:38.275Z,1021.95
2019-01-21T04:21:38.235Z,1022.00
2019-01-21T04:22:38.198Z,1021.95
2019-01-21T04:23:38.160Z,1021.95
2019-01-21T04:24:38.119Z,1021.99
2019-01-21T04:25:38.081Z,1021.98
2019-01-21T04:26:38.041Z,1021.99
2019-01-21T04:27:38.004Z,1022.00
2019-01-21T04:28:37.963Z,1022.00
2019-01-21T04:29:37.925Z,1022.02
2019-01-21T04:30:37.885Z,1022.03
2019-01-21T04:31:37.850Z,1022.01
2019-01-21T04:32:37.811Z,1022.01
2019-01-21T04:33:37.770Z,1021.97
2019-01-21T04:34:37.729Z,1021.96
2019-01-21T04:35:37.692Z,1021.96
2019-01-21T04:36:37.654Z,1021.96
2019-01-21T04:37:37.615Z,1021.97
2019-01-21T04:38:37.575Z,1022.03
2019-01-21T04:39:37.541Z,1022.05
2019-01-21T04:40:37.505Z,1022.06
2019-01-21T04:41:37.460Z,1022.07
2019-01-21T04:42:37.421Z,1022.08
2019-01-21T04:43:37.383Z,1022.08
2019-01-21T04:44:37.346Z,1022.10
2019-01-21T04:45:37.304Z,1022.09
2019-01-21T04:46:37.266Z,1022.09
2019-01-21T04:47:37.226Z,1022.11
2019-01-21T04:48:37.189Z,1022.07
2019-01-21T04:49:37.152Z,1022.06
2019-01-21T04:50:37.109Z,1022.05
2019-01-21T04:51:37.072Z,1022.02
2019-01-21T04:52:37.036Z,1022.02
2019-01-21T04:53:36.993Z,1022.02
2019-01-21T04:54:36.952Z,1021.98
2019-01-21T04:55:36.917Z,1021.97
2019-01-21T04:56:36.877Z,1022.02
2019-01-21T04:57:36.842Z,1022.01
2019-01-21T04:58:36.799Z,1022.01
2019-01-21T04:59:36.758Z,1022.03
2019-01-21T05:00:36.718Z,1022.02
2019-01-21T05:01:36.682Z,1022.04
2019-01-21T05:02:36.641Z,1022.03
2019-01-21T05:03:36.602Z,1022.03
2019-01-21T05:04:36.565Z,1022.01
2019-01-21T05:05:36.530Z,1021.99
2019-01-21T05:06:36.485Z,1021.99
2019-01-21T05:07:36.447Z,1021.97
2019-01-21T05:08:36.408Z,1021.94
2019-01-21T05:09:36.372Z,1021.97
2019-01-21T05:10:36.328Z,1021.99
2019-01-21T05:11:36.291Z,1022.01
2019-01-21T05:12:36.252Z,1021.94
2019-01-21T05:13:36.213Z,1021.91
2019-01-21T05:14:36.173Z,1021.92
2019-01-21T05:15:36.133Z,1021.91
2019-01-21T05:16:36.097Z,1021.87
2019-01-21T05:17:36.057Z,1021.91
2019-01-21T05:18:41.218Z,1021.87
2019-01-21T05:19:35.980Z,1021.88
2019-01-21T05:20:35.940Z,1021.83
2019-01-21T05:21:35.901Z,1021.87
2019-01-21T05:22:35.861Z,1021.88
2019-01-21T05:23:35.824Z,1021.88
2019-01-21T05:24:35.787Z,1021.85
2019-01-21T05:25:35.744Z,1021.90
2019-01-21T05:26:35.705Z,1021.83
2019-01-21T05:27:35.666Z,1021.91
2019-01-21T05:28:35.627Z,1021.87
2019-01-21T05:29:35.589Z,1021.86
2019-01-21T05:30:35.549Z,1021.85
2019-01-21T05:31:35.511Z,1021.80
2019-01-21T05:32:35.477Z,1021.79
2019-01-21T05:33:35.432Z,1021.81
2019-01-21T05:34:35.390Z,1021.83
2019-01-21T05:35:35.451Z,1021.79
2019-01-21T05:36:35.314Z,1021.79
2019-01-21T05:37:35.274Z,1021.77
2019-01-21T05:38:35.240Z,1021.77
2019-01-21T05:39:35.194Z,1021.78
2019-01-21T05:40:35.159Z,1021.76
2019-01-21T05:41:35.117Z,1021.78
2019-01-21T05:42:35.084Z,1021.76
2019-01-21T05:43:35.039Z,1021.76
2019-01-21T05:44:35.002Z,1021.77
2019-01-21T05:45:34.960Z,1021.71
2019-01-21T05:46:34.919Z,1021.63
2019-01-21T05:47:34.881Z,1021.59
2019-01-21T05:48:34.842Z,1021.58
2019-01-21T05:49:34.805Z,1021.56
2019-01-21T05:50:34.765Z,1021.55
2019-01-21T05:51:34.724Z,1021.55
2019-01-21T05:52:34.684Z,1021.58
2019-01-21T05:53:34.644Z,1021.57
2019-01-21T05:54:34.605Z,1021.58
2019-01-21T05:55:34.565Z,1021.60
2019-01-21T05:56:34.529Z,1021.61
2019-01-21T05:57:34.490Z,1021.59
2019-01-21T05:58:34.448Z,1021.61
2019-01-21T05:59:34.409Z,1021.60
2019-01-21T06:00:34.369Z,1021.65
2019-01-21T06:01:34.328Z,1021.68
2019-01-21T06:02:34.288Z,1021.68
2019-01-21T06:03:34.250Z,1021.66
2019-01-21T06:04:34.211Z,1021.65
2019-01-21T06:05:34.171Z,1021.67
2019-01-21T06:06:34.130Z,1021.66
2019-01-21T06:07:34.093Z,1021.59
2019-01-21T06:08:34.053Z,1021.60
2019-01-21T06:09:34.017Z,1021.58
2019-01-21T06:10:33.973Z,1021.52
2019-01-21T06:11:33.934Z,1021.55
2019-01-21T06:12:33.896Z,1021.55
2019-01-21T06:13:33.855Z,1021.54
2019-01-21T06:14:33.815Z,1021.57
2019-01-21T06:15:33.775Z,1021.55
2019-01-21T06:16:33.737Z,1021.52
2019-01-21T06:17:33.697Z,1021.54
2019-01-21T06:18:33.657Z,1021.56
2019-01-21T06:19:33.617Z,1021.50
2019-01-21T06:20:33.579Z,1021.57
2019-01-21T06:21:33.539Z,1021.51
2019-01-21T06:22:33.499Z,1021.54
2019-01-21T06:23:33.460Z,1021.51
2019-01-21T06:24:33.420Z,1021.50
2019-01-21T06:25:33.381Z,1021.51
2019-01-21T06:26:33.339Z,1021.53
2019-01-21T06:27:33.301Z,1021.54
2019-01-21T06:28:33.260Z,1021.52
2019-01-21T06:29:33.221Z,1021.55
2019-01-21T06:30:33.181Z,1021.59
2019-01-21T06:31:33.141Z,1021.62
2019-01-21T06:32:33.101Z,1021.56
2019-01-21T06:33:33.063Z,1021.56
2019-01-21T06:34:33.023Z,1021.62
2019-01-21T06:35:33.232Z,1021.61
2019-01-21T06:36:32.945Z,1021.57
2019-01-21T06:37:32.910Z,1021.61
2019-01-21T06:38:32.864Z,1021.61
2019-01-21T06:39:32.825Z,1021.60
2019-01-21T06:40:32.785Z,1021.59
2019-01-21T06:41:32.745Z,1021.60
2019-01-21T06:42:32.704Z,1021.62
2019-01-21T06:43:32.666Z,1021.63
2019-01-21T06:44:32.627Z,1021.62
2019-01-21T06:45:32.587Z,1021.60
2019-01-21T06:46:32.546Z,1021.69
2019-01-21T06:47:32.510Z,1021.66
2019-01-21T06:48:32.467Z,1021.72
2019-01-21T06:49:32.428Z,1021.73
2019-01-21T06:50:32.387Z,1021.70
2019-01-21T06:51:32.386Z,1021.75
2019-01-21T06:52:32.308Z,1021.77
2019-01-21T06:53:32.269Z,1021.78
2019-01-21T06:54:32.229Z,1021.84
2019-01-21T06:55:32.189Z,1021.88
2019-01-21T06:56:32.151Z,1021.93
2019-01-21T06:57:32.110Z,1021.90
2019-01-21T06:58:32.074Z,1021.92
2019-01-21T06:59:32.033Z,1021.91
2019-01-21T07:00:31.990Z,1021.97
2019-01-21T07:01:33.316Z,1021.93
2019-01-21T07:02:31.913Z,1021.93
2019-01-21T07:03:31.906Z,1021.91
2019-01-21T07:04:31.835Z,1021.93
2019-01-21T07:05:31.794Z,1021.90
2019-01-21T07:06:31.785Z,1021.93
2019-01-21T07:07:31.716Z,1021.88
2019-01-21T07:08:31.676Z,1021.88
2019-01-21T07:09:31.640Z,1021.88
2019-01-21T07:10:31.598Z,1021.88
2019-01-21T07:11:31.558Z,1021.84
2019-01-21T07:12:31.523Z,1021.78
2019-01-21T07:13:31.478Z,1021.84
2019-01-21T07:14:31.438Z,1021.79
2019-01-21T07:15:31.400Z,1021.84
2019-01-21T07:16:31.361Z,1021.82
2019-01-21T07:17:31.323Z,1021.80
2019-01-21T07:18:31.280Z,1021.81
2019-01-21T07:19:31.241Z,1021.77
2019-01-21T07:20:31.201Z,1021.77
2019-01-21T07:21:31.163Z,1021.78
2019-01-21T07:22:31.122Z,1021.75
2019-01-21T07:23:31.082Z,1021.70
2019-01-21T07:24:31.043Z,1021.70
2019-01-21T07:25:31.005Z,1021.66
2019-01-21T07:26:30.962Z,1021.66
2019-01-21T07:27:30.924Z,1021.71
2019-01-21T07:28:30.886Z,1021.66
2019-01-21T07:29:30.844Z,1021.63
2019-01-21T07:30:30.804Z,1021.63
2019-01-21T07:31:30.766Z,1021.63
2019-01-21T07:32:30.726Z,1021.59
2019-01-21T07:33:30.687Z,1021.56
2019-01-21T07:34:30.647Z,1021.68
2019-01-21T07:35:30.607Z,1021.67
2019-01-21T07:36:30.568Z,1021.69
2019-01-21T07:37:30.529Z,1021.67
2019-01-21T07:38:30.487Z,1021.68
2019-01-21T07:39:33.779Z,1021.70
2019-01-21T07:40:30.409Z,1021.71
2019-01-21T07:41:30.370Z,1021.73
2019-01-21T07:42:30.329Z,1021.72
2019-01-21T07:43:30.290Z,1021.68
2019-01-21T07:44:30.249Z,1021.75
2019-01-21T07:45:30.210Z,1021.72
2019-01-21T07:46:30.174Z,1021.80
2019-01-21T07:47:30.132Z,1021.80
2019-01-21T07:48:30.093Z,1021.76
2019-01-21T07:49:30.052Z,1021.82
2019-01-21T07:50:30.011Z,1021.81
2019-01-21T07:51:29.972Z,1021.82
2019-01-21T07:52:29.932Z,1021.79
2019-01-21T07:53:29.894Z,1021.81
2019-01-21T07:54:29.853Z,1021.79
2019-01-21T07:55:29.815Z,1021.82
2019-01-21T07:56:29.781Z,1021.87
2019-01-21T07:57:29.734Z,1021.85
2019-01-21T07:58:29.795Z,1021.86
2019-01-21T07:59:29.654Z,1021.80
2019-01-21T08:00:29.616Z,1021.81
2019-01-21T08:01:29.575Z,1021.79
2019-01-21T08:02:29.535Z,1021.80
2019-01-21T08:03:29.497Z,1021.82
2019-01-21T08:04:29.455Z,1021.80
2019-01-21T08:05:29.416Z,1021.81
2019-01-21T08:06:29.375Z,1021.83
2019-01-21T08:07:29.337Z,1021.82
2019-01-21T08:08:29.297Z,1021.84
2019-01-21T08:09:29.258Z,1021.84
2019-01-21T08:10:29.216Z,1021.87
2019-01-21T08:11:29.178Z,1021.84
2019-01-21T08:12:29.136Z,1021.89
2019-01-21T08:13:29.097Z,1021.87
2019-01-21T08:14:29.057Z,1021.87
2019-01-21T08:15:29.019Z,1021.87
2019-01-21T08:16:28.979Z,1021.83
2019-01-21T08:17:28.942Z,1021.86
2019-01-21T08:18:28.896Z,1021.83
2019-01-21T08:19:28.858Z,1021.85
2019-01-21T08:20:28.819Z,1021.86
2019-01-21T08:21:28.778Z,1021.91
2019-01-21T08:22:28.737Z,1021.88
2019-01-21T08:23:30.324Z,1021.84
2019-01-21T08:24:28.658Z,1021.86
2019-01-21T08:25:28.619Z,1021.85
2019-01-21T08:26:28.577Z,1021.87
2019-01-21T08:27:28.537Z,1021.85
2019-01-21T08:28:28.498Z,1021.86
2019-01-21T08:29:28.458Z,1021.88
2019-01-21T08:30:28.420Z,1021.83
2019-01-21T08:31:28.378Z,1021.80
2019-01-21T08:32:28.339Z,1021.78
2019-01-21T08:33:28.298Z,1021.75
2019-01-21T08:34:28.260Z,1021.77
2019-01-21T08:35:28.217Z,1021.79
2019-01-21T08:36:28.178Z,1021.80
2019-01-21T08:37:28.140Z,1021.78
2019-01-21T08:38:28.098Z,1021.78
2019-01-21T08:39:28.059Z,1021.76
2019-01-21T08:40:28.020Z,1021.74
2019-01-21T08:41:27.978Z,1021.73
2019-01-21T08:42:27.939Z,1021.67
2019-01-21T08:43:27.900Z,1021.69
2019-01-21T08:44:27.859Z,1021.64
2019-01-21T08:45:27.820Z,1021.60
2019-01-21T08:46:27.780Z,1021.66
2019-01-21T08:47:27.740Z,1021.64
2019-01-21T08:48:27.701Z,1021.65
2019-01-21T08:49:30.772Z,1021.67
2019-01-21T08:50:27.621Z,1021.69
2019-01-21T08:51:27.585Z,1021.68
2019-01-21T08:52:27.542Z,1021.69
2019-01-21T08:53:27.503Z,1021.71
2019-01-21T08:54:27.463Z,1021.76
2019-01-21T08:55:27.426Z,1021.78
2019-01-21T08:56:27.386Z,1021.75
2019-01-21T08:57:27.347Z,1021.75
2019-01-21T08:58:27.308Z,1021.78
2019-01-21T08:59:27.270Z,1021.78
2019-01-21T09:00:27.230Z,1021.76
2019-01-21T09:01:27.191Z,1021.78
2019-01-21T09:02:27.167Z,1021.76
2019-01-21T09:03:27.114Z,1021.69
2019-01-21T09:04:27.076Z,1021.68
2019-01-21T09:05:27.037Z,1021.66
2019-01-21T09:06:26.996Z,1021.60
2019-01-21T09:07:26.959Z,1021.59
2019-01-21T09:08:26.920Z,1021.58
2019-01-21T09:09:26.880Z,1021.66
2019-01-21T09:10:26.843Z,1021.64
2019-01-21T09:11:26.803Z,1021.63
2019-01-21T09:12:26.763Z,1021.58
2019-01-21T09:13:26.725Z,1021.62
2019-01-21T09:14:26.685Z,1021.59
2019-01-21T09:15:26.652Z,1021.56
2019-01-21T09:16:26.609Z,1021.58
2019-01-21T09:17:26.571Z,1021.55
2019-01-21T09:18:26.531Z,1021.53
2019-01-21T09:19:26.496Z,1021.50
2019-01-21T09:20:26.455Z,1021.49
2019-01-21T09:21:26.420Z,1021.45
2019-01-21T09:22:26.377Z,1021.42
2019-01-21T09:23:26.341Z,1021.42
2019-01-21T09:24:26.302Z,1021.34
2019-01-21T09:25:26.265Z,1021.37
2019-01-21T09:26:26.228Z,1021.34
2019-01-21T09:27:26.189Z,1021.34
2019-01-21T09:28:26.153Z,1021.31
2019-01-21T09:29:26.937Z,1021.31
2019-01-21T09:30:26.077Z,1021.29
2019-01-21T09:31:26.040Z,1021.30
2019-01-21T09:32:26.001Z,1021.29
2019-01-21T09:33:25.964Z,1021.31
2019-01-21T09:34:25.926Z,1021.29
2019-01-21T09:35:25.894Z,1021.28
2019-01-21T09:36:25.854Z,1021.31
2019-01-21T09:37:25.816Z,1021.32
2019-01-21T09:38:25.778Z,1021.22
2019-01-21T09:39:25.742Z,1021.19
2019-01-21T09:40:25.709Z,1021.18
2019-01-21T09:41:25.668Z,1021.15
2019-01-21T09:42:25.632Z,1021.14
2019-01-21T09:43:25.598Z,1021.12
2019-01-21T09:44:25.559Z,1021.14
2019-01-21T09:45:25.521Z,1021.10
2019-01-21T09:46:25.486Z,1021.17
2019-01-21T09:47:25.452Z,1021.19
2019-01-21T09:48:25.413Z,1021.15
2019-01-21T09:49:25.395Z,1021.19
2019-01-21T09:50:25.340Z,1021.24
2019-01-21T09:51:25.304Z,1021.25
2019-01-21T09:52:25.369Z,1021.23
2019-01-21T09:53:25.233Z,1021.20
2019-01-21T09:54:25.195Z,1021.22
2019-01-21T09:55:25.161Z,1021.25
2019-01-21T09:56:25.126Z,1021.26
2019-01-21T09:57:25.088Z,1021.27
2019-01-21T09:58:25.052Z,1021.26
2019-01-21T09:59:25.017Z,1021.34
2019-01-21T10:00:24.982Z,1021.30
2019-01-21T10:01:24.949Z,1021.25
2019-01-21T10:02:24.909Z,1021.25
2019-01-21T10:03:24.873Z,1021.21
2019-01-21T10:04:24.837Z,1021.23
2019-01-21T10:05:24.802Z,1021.22
2019-01-21T10:06:24.765Z,1021.23
2019-01-21T10:07:24.728Z,1021.23
2019-01-21T10:08:24.692Z,1021.23
2019-01-21T10:09:24.656Z,1021.24
2019-01-21T10:10:24.619Z,1021.23
2019-01-21T10:11:24.583Z,1021.25
2019-01-21T10:12:24.546Z,1021.23
2019-01-21T10:13:24.510Z,1021.18
2019-01-21T10:14:24.476Z,1021.23
2019-01-21T10:15:24.438Z,1021.23
2019-01-21T10:16:24.403Z,1021.21
2019-01-21T10:17:24.366Z,1021.20
2019-01-21T10:18:24.329Z,1021.28
2019-01-21T10:19:24.293Z,1021.24
2019-01-21T10:20:24.258Z,1021.16
2019-01-21T10:21:24.223Z,1021.19
2019-01-21T10:22:24.186Z,1021.14
2019-01-21T10:23:24.152Z,1021.14
2019-01-21T10:24:24.116Z,1021.16
2019-01-21T10:25:24.081Z,1021.17
2019-01-21T10:26:24.045Z,1021.13
2019-01-21T10:27:24.009Z,1021.10
2019-01-21T10:28:23.975Z,1021.09
2019-01-21T10:29:23.939Z,1021.07
2019-01-21T10:30:23.904Z,1021.05
2019-01-21T10:31:23.869Z,1021.00
2019-01-21T10:32:23.835Z,1020.94
2019-01-21T10:33:23.805Z,1020.92
2019-01-21T10:34:23.849Z,1020.95
2019-01-21T10:35:23.729Z,1020.93
2019-01-21T10:36:23.694Z,1020.89
2019-01-21T10:37:23.661Z,1020.86
2019-01-21T10:38:23.623Z,1020.80
2019-01-21T10:39:23.589Z,1020.80
2019-01-21T10:40:23.555Z,1020.82
2019-01-21T10:41:23.519Z,1020.79
2019-01-21T10:42:23.485Z,1020.79
2019-01-21T10:43:23.451Z,1020.84
2019-01-21T10:44:23.415Z,1020.85
2019-01-21T10:45:23.393Z,1020.87
2019-01-21T10:46:23.344Z,1020.86
2019-01-21T10:47:23.310Z,1020.84
2019-01-21T10:48:23.275Z,1020.91
2019-01-21T10:49:23.241Z,1020.95
2019-01-21T10:50:23.204Z,1020.95
2019-01-21T10:51:23.171Z,1020.96
2019-01-21T10:52:23.134Z,1020.96
2019-01-21T10:53:23.102Z,1020.97
2019-01-21T10:54:23.063Z,1020.98
2019-01-21T10:55:23.029Z,1020.99
2019-01-21T10:56:23.009Z,1020.94
2019-01-21T10:57:22.958Z,1020.93
2019-01-21T10:58:22.922Z,1020.88
2019-01-21T10:59:22.888Z,1020.87
2019-01-21T11:00:22.852Z,1020.89
2019-01-21T11:01:22.818Z,1020.87
2019-01-21T11:02:22.782Z,1020.84
2019-01-21T11:03:22.750Z,1020.82
2019-01-21T11:04:22.713Z,1020.81
2019-01-21T11:05:22.678Z,1020.78
2019-01-21T11:06:22.643Z,1020.77
2019-01-21T11:07:22.605Z,1020.76
2019-01-21T11:08:22.570Z,1020.80
2019-01-21T11:09:26.690Z,1020.75
2019-01-21T11:10:22.499Z,1020.69
2019-01-21T11:11:22.465Z,1020.72
2019-01-21T11:12:22.429Z,1020.64
2019-01-21T11:13:22.395Z,1020.66
2019-01-21T11:14:22.357Z,1020.63
2019-01-21T11:15:22.322Z,1020.65
2019-01-21T11:16:22.288Z,1020.61
2019-01-21T11:17:22.252Z,1020.59
2019-01-21T11:18:22.215Z,1020.57
2019-01-21T11:19:22.252Z,1020.57
2019-01-21T11:20:22.147Z,1020.55
2019-01-21T11:21:22.109Z,1020.52
2019-01-21T11:22:22.074Z,1020.50
2019-01-21T11:23:22.040Z,1020.48
2019-01-21T11:24:22.003Z,1020.47
2019-01-21T11:25:21.969Z,1020.50
2019-01-21T11:26:21.933Z,1020.44
2019-01-21T11:27:21.896Z,1020.37
2019-01-21T11:28:21.863Z,1020.41
2019-01-21T11:29:21.829Z,1020.40
2019-01-21T11:30:21.792Z,1020.43
2019-01-21T11:31:23.720Z,1020.40
2019-01-21T11:32:21.720Z,1020.39
2019-01-21T11:33:21.686Z,1020.36
2019-01-21T11:34:21.649Z,1020.31
2019-01-21T11:35:21.612Z,1020.31
2019-01-21T11:36:21.579Z,1020.25
2019-01-21T11:37:21.542Z,1020.16
2019-01-21T11:38:21.507Z,1020.14
2019-01-21T11:39:21.471Z,1020.12
2019-01-21T11:40:21.437Z,1020.08
2019-01-21T11:41:21.401Z,1020.05
2019-01-21T11:42:21.364Z,1020.05
2019-01-21T11:43:21.328Z,1019.98
2019-01-21T11:44:21.294Z,1020.00
2019-01-21T11:45:21.257Z,1020.08
2019-01-21T11:46:21.221Z,1019.97
2019-01-21T11:47:21.186Z,1019.99
2019-01-21T11:48:21.152Z,1019.95
2019-01-21T11:49:21.115Z,1019.93
2019-01-21T11:50:21.079Z,1019.94
2019-01-21T11:51:21.044Z,1019.86
2019-01-21T11:52:21.008Z,1019.88
2019-01-21T11:53:20.974Z,1019.94
2019-01-21T11:54:20.938Z,1019.86
2019-01-21T11:55:20.904Z,1019.87
2019-01-21T11:56:20.872Z,1019.87
2019-01-21T11:57:20.833Z,1019.87
2019-01-21T11:58:20.796Z,1019.85
2019-01-21T11:59:20.761Z,1019.82
2019-01-21T12:00:20.726Z,1019.81
2019-01-21T12:01:20.692Z,1019.81
2019-01-21T12:02:20.655Z,1019.79
2019-01-21T12:03:23.585Z,1019.75
2019-01-21T12:04:20.585Z,1019.72
2019-01-21T12:05:20.553Z,1019.72